Flight Track Log - Related Links

Times and Time Zones

All times are in EDT time to prevent confusion due to time zone crossing. See the ASQ4253 flight status page for this flight to view local times or setup timezone preferences in your user account.

Time Position Orientation Groundspeed Altitude Reporting Facility
EDT Latitude Longitude Course Direction KTS MPH feet Rate Location/Type
Mon 05:26:31 PM 34.0008 -81.2442 309° West 228 262 3,700  Level Jacksonville Center
Mon 05:27:00 PM 34.2050 -81.3107 329° Northwest  Level FlightAware
Mon 05:27:31 PM 34.0436 -81.3111 308° West 246 283 5,700  Level Jacksonville Center
Mon 05:28:00 PM 34.2956 -81.3758 328° Northwest  Level FlightAware
Mon 05:28:31 PM 34.1108 -81.3500 334° Northwest 254 292 7,600  Level Jacksonville Center
Mon 05:29:00 PM 34.3852 -81.4430 328° Northwest  Level FlightAware
Mon 05:30:00 PM 34.4742 -81.5114 327° Northwest  Level FlightAware
Mon 05:30:55 PM 34.2719 -81.4522 332° Northwest 281 323 11,400  Level Atlanta Center
Mon 05:31:55 PM 34.3544 -81.5025 333° Northwest 301 346 12,300 1,000 Climbing Atlanta Center
Mon 05:32:55 PM 34.4411 -81.5578 332° Northwest 327 376 13,400 1,300 Climbing Atlanta Center
Mon 05:33:55 PM 34.5258 -81.6083 334° Northwest 338 389 14,900 1,500 Climbing Atlanta Center
Mon 05:34:55 PM 34.6061 -81.6614 331° Northwest 338 389 16,400 1,600 Climbing Atlanta Center
Mon 05:35:55 PM 34.6989 -81.7194 333° Northwest 333 383 18,100 1,600 Climbing Atlanta Center
Mon 05:36:55 PM 34.7792 -81.7728 331° Northwest 333 383 19,600 1,300 Climbing Atlanta Center
Mon 05:37:55 PM 34.8617 -81.8239 333° Northwest 328 377 20,700 1,050 Climbing Atlanta Center
Mon 05:38:55 PM 34.9461 -81.8772 333° Northwest 328 377 21,700 950 Climbing Atlanta Center
Mon 05:39:55 PM 35.0117 -81.9339 325° Northwest 328 377 22,600 1,000 Climbing Atlanta Center
Mon 05:40:55 PM 35.0344 -82.0450 284° West 319 367 23,700 1,050 Climbing Atlanta Center
Mon 05:41:55 PM 35.0319 -82.1567 268° West 324 373 24,700 1,000 Climbing Atlanta Center
Mon 05:42:55 PM 35.0297 -82.2783 269° West 332 382 25,700 1,000 Climbing Atlanta Center
Mon 05:43:55 PM 35.0292 -82.3900 270° West 332 382 26,700 1,000 Climbing Atlanta Center
Mon 05:44:55 PM 35.0264 -82.5042 268° West 331 381 27,700 1,000 Climbing Atlanta Center
Mon 05:45:55 PM 35.0256 -82.6158 270° West 331 381 28,700 1,000 Climbing Atlanta Center
Mon 05:46:55 PM 35.0228 -82.7275 268° West 336 387 29,700 1,000 Climbing Atlanta Center
Mon 05:47:55 PM 35.0197 -82.8442 268° West 336 387 30,700 1,000 Climbing Atlanta Center
Mon 05:48:55 PM 35.0186 -82.9558 269° West 336 387 31,700 1,000 Climbing Atlanta Center
Mon 05:49:55 PM 35.0175 -83.0572 269° West 336 387 32,700 950 Climbing Atlanta Center
Mon 05:50:55 PM 35.0161 -83.1714 269° West 336 387 33,600 800 Climbing Atlanta Center
Mon 05:51:55 PM 35.0128 -83.2856 268° West 331 381 34,300 650 Climbing Atlanta Center
Mon 05:52:55 PM 35.0114 -83.3947 269° West 331 381 34,900 350 Climbing Atlanta Center
Mon 05:53:55 PM 35.0078 -83.5139 268° West 331 381 35,000 50 Climbing Atlanta Center
Mon 05:54:55 PM 35.0042 -83.6433 268° West 361 415 35,000  Level Atlanta Center
Mon 05:55:55 PM 35.0003 -83.7775 268° West 384 442 35,000  Level Atlanta Center
Mon 05:56:55 PM 34.9964 -83.9169 268° West 407 468 35,000  Level Atlanta Center
Mon 05:57:55 PM 34.9942 -84.0642 269° West 421 484 35,000  Level Atlanta Center
Mon 05:58:55 PM 34.9900 -84.2086 268° West 427 491 35,000  Level Atlanta Center
Mon 05:59:55 PM 34.9856 -84.3556 268° West 432 497 35,000  Level Atlanta Center
Mon 06:00:55 PM 34.9808 -84.5053 268° West 438 504 35,000  Level Atlanta Center
Mon 06:01:55 PM 34.9761 -84.6497 268° West 438 504 35,000  Level Atlanta Center
Mon 06:02:55 PM 34.9711 -84.7967 268° West 438 504 35,000  Level Atlanta Center
Mon 06:03:55 PM 34.9658 -84.9436 268° West 438 504 35,000 450 Level Atlanta Center
Mon 06:04:55 PM 34.9625 -85.0981 269° West 438 504 35,900 500 Climbing Atlanta Center
Mon 06:05:55 PM 34.9633 -85.2428 270° West 428 493 36,000 50 Climbing Atlanta Center
Mon 06:06:55 PM 34.9681 -85.3897 272° West 428 493 36,000  Level Atlanta Center
Mon 06:07:55 PM 34.9728 -85.5369 272° West 433 498 36,000  Level Atlanta Center
Mon 06:08:55 PM 34.9769 -85.6814 272° West 438 504 36,000  Level Atlanta Center
Mon 06:09:55 PM 34.9792 -85.8283 271° West 438 504 36,000  Level Atlanta Center
Mon 06:10:55 PM 34.9833 -85.9756 272° West 438 504 36,000  Level Atlanta Center
Mon 06:11:55 PM 34.9872 -86.1178 272° West 438 504 36,000  Level Atlanta Center
Mon 06:12:55 PM 34.9911 -86.2572 272° West 422 486 36,000  Level Atlanta Center
Mon 06:13:55 PM 34.9947 -86.3992 272° West 422 486 36,000  Level Atlanta Center
Mon 06:15:32 PM 34.9972 -86.6333 271° West 422 486 36,000  Level Memphis Center
Mon 06:16:32 PM 35.0014 -86.7725 272° West 427 491 36,000  Level Memphis Center
Mon 06:17:32 PM 35.0011 -86.9144 270° West 427 491 36,000  Level Memphis Center
Mon 06:18:32 PM 35.0050 -87.0539 272° West 413 475 36,000  Level Memphis Center
Mon 06:19:32 PM 35.0044 -87.1933 270° West 418 481 36,000  Level Memphis Center
Mon 06:20:32 PM 35.0081 -87.3325 272° West 418 481 36,000  Level Memphis Center
Mon 06:21:32 PM 35.0092 -87.4769 271° West 418 481 36,000  Level Memphis Center
Mon 06:22:32 PM 35.0125 -87.6164 272° West 418 481 36,000  Level Memphis Center
Mon 06:23:32 PM 35.0153 -87.7531 271° West 417 480 36,000  Level Memphis Center
Mon 06:24:32 PM 35.0203 -87.8875 273° West 411 473 36,000  Level Memphis Center
Mon 06:25:32 PM 35.0183 -88.0092 269° West 404 465 36,000  Level Memphis Center
Mon 06:26:32 PM 35.0169 -88.1486 269° West 409 471 36,000  Level Memphis Center
Mon 06:27:32 PM 35.0172 -88.2956 270° West 422 486 36,000  Level Memphis Center
Mon 06:28:32 PM 35.0194 -88.4350 271° West 422 486 36,000  Level Memphis Center
Mon 06:29:32 PM 35.0194 -88.5719 270° West 412 474 36,000  Level Memphis Center
Mon 06:30:32 PM 35.0192 -88.7089 270° West 412 474 36,000  Level Memphis Center
Mon 06:31:32 PM 35.0192 -88.8636 270° West 419 482 36,000  Level Memphis Center
Mon 06:32:32 PM 35.0186 -89.0056 270° West 419 482 36,000  Level Memphis Center
Mon 06:33:32 PM 35.0203 -89.1475 271° West 419 482 36,000  Level Memphis Center
Mon 06:34:32 PM 35.0194 -89.2922 270° West 419 482 36,000  Level Memphis Center
Mon 06:35:32 PM 35.0206 -89.4367 271° West 424 488 36,000  Level Memphis Center
Mon 06:36:32 PM 35.0217 -89.5836 271° West 424 488 36,000  Level Memphis Center
Mon 06:37:32 PM 34.9806 -89.7108 249° West 411 473 36,000  Level Memphis Center
Mon 06:38:32 PM 34.8642 -89.7725 203° Southwest 412 474 36,000  Level Memphis Center
Mon 06:39:32 PM 34.7494 -89.8264 201° Southwest 424 488 36,000  Level Memphis Center
Mon 06:40:32 PM 34.6331 -89.8878 203° Southwest 447 514 36,000  Level Memphis Center
Mon 06:41:32 PM 34.5142 -89.9411 200° South 457 526 36,000  Level Memphis Center
Mon 06:42:32 PM 34.3872 -89.9972 200° South 451 519 36,000  Level Memphis Center
Mon 06:43:32 PM 34.2703 -90.0481 200° South 451 519 36,000  Level Memphis Center
Mon 06:44:32 PM 34.1536 -90.0986 200° South 451 519 36,000  Level Memphis Center
Mon 06:45:32 PM 34.0389 -90.1467 199° South 441 507 36,000  Level Memphis Center
Mon 06:46:32 PM 33.9264 -90.1969 200° South 441 507 36,000  Level Memphis Center
Mon 06:47:32 PM 33.8347 -90.2922 221° Southwest 434 499 36,000  Level Memphis Center
Mon 06:48:32 PM 33.7678 -90.3872 230° Southwest 419 482 36,000  Level Memphis Center
Mon 06:49:32 PM 33.6883 -90.4894 227° Southwest 419 482 36,000  Level Memphis Center
Mon 06:50:32 PM 33.6089 -90.5967 228° Southwest 424 488 36,000  Level Memphis Center
Mon 06:51:32 PM 33.5272 -90.7011 227° Southwest 424 488 36,000  Level Memphis Center
Mon 06:52:32 PM 33.4478 -90.8028 227° Southwest 429 494 36,000  Level Memphis Center
Mon 06:53:32 PM 33.3658 -90.9119 228° Southwest 429 494 36,000  Level Memphis Center
Mon 06:54:32 PM 33.2819 -91.0208 227° Southwest 435 501 36,000  Level Memphis Center
Mon 06:55:32 PM 33.2019 -91.1219 227° Southwest 435 501 36,000  Level Memphis Center
Mon 06:56:32 PM 33.1136 -91.2378 228° Southwest 435 501 36,000  Level Memphis Center
Mon 06:57:32 PM 33.0333 -91.3411 227° Southwest 435 501 36,000  Level Memphis Center
Mon 06:58:32 PM 32.9533 -91.4467 228° Southwest 435 501 36,000  Level Memphis Center
Mon 06:59:32 PM 32.8731 -91.5469 226° Southwest 435 501 36,000  Level Memphis Center
Mon 07:01:26 PM 32.7239 -91.7344 227° Southwest 423 487 36,000  Level Fort Center
Mon 07:02:26 PM 32.6333 -91.8561 229° Southwest 430 495 36,000  Level Fort Center
Mon 07:04:49 PM 32.4442 -92.0886 226° Southwest 434 499 36,000  Level Houston Center
Mon 07:05:51 PM 32.3631 -92.1911 227° Southwest 430 495 36,000  Level Houston Center
Mon 07:06:52 PM 32.2808 -92.2942 227° Southwest 432 497 36,000  Level Houston Center
Mon 07:07:54 PM 32.1972 -92.3989 227° Southwest 440 506 36,000  Level Houston Center
Mon 07:08:56 PM 32.0950 -92.5261 227° Southwest 446 513 36,000  Level Houston Center
Mon 07:09:57 PM 32.0086 -92.6325 226° Southwest 450 518 36,000  Level Houston Center
Mon 07:10:59 PM 31.9153 -92.7336 223° Southwest 454 522 36,000  Level Houston Center
Mon 07:12:00 PM 31.8189 -92.8261 219° Southwest 451 519 36,000  Level Houston Center
Mon 07:13:02 PM 31.7225 -92.9214 220° Southwest 454 522 36,000  Level Houston Center
Mon 07:14:04 PM 31.6250 -93.0144 219° Southwest 454 522 36,000  Level Houston Center
Mon 07:15:05 PM 31.5278 -93.1078 219° Southwest 453 521 36,000  Level Houston Center
Mon 07:16:07 PM 31.4117 -93.2197 219° Southwest 451 519 36,000  Level Houston Center
Mon 07:17:09 PM 31.3247 -93.3017 219° Southwest 447 514 36,000 -290 Level Houston Center
Mon 07:18:11 PM 31.2197 -93.4006 219° Southwest 443 510 35,400 -976 Descending Houston Center
Mon 07:19:12 PM 31.1256 -93.4911 219° Southwest 439 505 34,000 -1,610 Descending Houston Center
Mon 07:20:14 PM 31.0300 -93.5819 219° Southwest 444 511 32,100 -2,129 Descending Houston Center
Mon 07:21:16 PM 30.9347 -93.6725 219° Southwest 446 513 29,600 -2,634 Descending Houston Center
Mon 07:22:17 PM 30.8208 -93.7808 219° Southwest 444 511 26,700 -2,634 Descending Houston Center
Mon 07:23:19 PM 30.7283 -93.8672 219° Southwest 431 496 24,200 -2,371 Descending Houston Center
Mon 07:24:21 PM 30.6419 -93.9483 219° Southwest 411 473 21,800 -2,478 Descending Houston Center
Mon 07:24:51 PM 30.5939 -93.9917 218° Southwest 385 443 20,400 -2,459 Descending Houston Center
Mon 07:25:22 PM 30.5600 -94.0250 220° Southwest 391 450 19,300 -2,258 Descending Houston Center
Mon 07:26:24 PM 30.4828 -94.0972 219° Southwest 369 425 16,900 -2,633 Descending Houston Center
Mon 07:27:00 PM 30.4269 -94.1500 219° Southwest 346 398 15,000 -2,660 Descending Houston Center
Mon 07:28:01 PM 30.3650 -94.2239 226° Southwest 327 376 12,600 -1,475 Descending Houston Center
Mon 07:29:02 PM 30.3156 -94.3175 239° Southwest 320 368 12,000 -295 Descending Houston Center
Mon 07:30:03 PM 30.2678 -94.4086 239° Southwest 321 369 12,000 -393 Level Houston Center
Mon 07:31:04 PM 30.2250 -94.4867 238° Southwest 262 302 11,200 -1,279 Descending Houston Center
Mon 07:32:05 PM 30.1903 -94.5614 242° Southwest 270 311 9,400 -1,582 Descending Houston Center
Mon 07:32:35 PM 30.1767 -94.5914 242° Southwest 268 308 8,800 -1,869 Descending Houston Center
Mon 07:33:06 PM 30.1517 -94.6389 239° Southwest 265 305 7,500 -1,770 Descending Houston Center
Mon 07:33:36 PM 30.1408 -94.6647 244° Southwest 264 304 7,000 -1,672 Descending Houston Center
Mon 07:34:07 PM 30.1167 -94.7111 239° Southwest 258 297 5,800 -1,742 Descending Houston Center
Mon 07:34:38 PM 30.1058 -94.7364 244° Southwest 259 298 5,200 -1,869 Descending Houston Center
Mon 07:35:08 PM 30.0797 -94.7858 239° Southwest 255 293 3,900 -1,742 Descending Houston Center
Mon 07:35:40 PM 30.0703 -94.8075 243° Southwest 257 296 3,400 -516 Descending Houston Center
Mon 07:36:41 PM 30.0333 -94.8906 243° Southwest 246 283 3,100 -146 Descending Houston Center
Mon 07:37:43 PM 30.0000 -94.9608 241° Southwest 249 287 3,100  Level Houston Center
Mon 07:38:45 PM 29.9786 -95.0361 252° West 254 292 3,100  Level Houston Center
Mon 07:39:46 PM 29.9778 -95.1158 269° West 252 290 3,100  Level Houston Center

Login

Don't have an account? Register now (free) for customized features, flight alerts, and more!